Time;durP1;ratioP1;P1;durP2;ratioP2;P2;SDS_P1;SDS_P2;PMS_P1;PMS_P2;Temp;Humidity;BMP_temperature;BMP_pressure;BME280_temperature;BME280_humidity;BME280_pressure;Samples;Min_cycle;Max_cycle;Signal;HPM_P1;HPM_P2
2021/10/30 00:00:18;;;;;;;;;;;;;;;;;;1042309;28;1582;-17
2021/10/30 00:00:49;;;;;;;;;;;;;;;;;;1042480;28;1291;-18
2021/10/30 00:01:20;;;;;;;;;;;;;;;;;;1042299;28;1195;-17
2021/10/30 00:01:51;;;;;;;;;;;;;;;;;;1038884;28;984;-18
2021/10/30 00:02:21;;;;;;;;;;;;;;;;;;1039074;28;1026;-18
2021/10/30 00:02:52;;;;;;;;;;;;;;;;;;1041968;28;1197;-18
2021/10/30 00:03:23;;;;;;;;;;;;;;;;;;1042380;28;1130;-18
2021/10/30 00:03:53;;;;;;;;;;;;;;;;;;1042319;28;920;-18
2021/10/30 00:04:25;;;;;;;;;;;;;;;;;;1042535;28;1266;-17
2021/10/30 00:04:55;;;;;;;;;;;;;;;;;;1042468;28;1056;-17
2021/10/30 00:05:26;;;;;;;;;;;;;;;;;;1041694;28;1736;-18
2021/10/30 00:05:56;;;;;;;;;;;;;;;;;;1042354;28;1231;-18
2021/10/30 00:06:27;;;;;;;;;;;;;;;;;;1042400;28;1041;-17
2021/10/30 00:06:59;;;;;;;;;;;;;;;;;;1041859;28;1421;-18
2021/10/30 00:07:30;;;;;;;;;;;;;;;;;;1042580;28;1206;-17
2021/10/30 00:08:00;;;;;;;;;;;;;;;;;;1041543;28;1232;-18
2021/10/30 00:08:31;;;;;;;;;;;;;;;;;;1042216;28;1610;-18
2021/10/30 00:09:01;;;;;;;;;;;;;;;;;;1042255;28;1211;-17
2021/10/30 00:09:31;;;;;;;;;;;;;;;;;;1038532;28;1968;-18
2021/10/30 00:10:02;;;;;;;;;;;;;;;;;;1039220;28;996;-17
2021/10/30 00:10:34;;;;;;;;;;;;;;;;;;1042443;28;1099;-17
2021/10/30 00:11:04;;;;;;;;;;;;;;;;;;1042200;28;1053;-17
2021/10/30 00:11:35;;;;;;;;;;;;;;;;;;1042427;28;1000;-18
2021/10/30 00:12:05;;;;;;;;;;;;;;;;;;1041725;28;1773;-17
2021/10/30 00:12:36;;;;;;;;;;;;;;;;;;1042236;28;1106;-17
2021/10/30 00:13:06;;;;;;;;;;;;;;;;;;1041911;28;1665;-17
2021/10/30 00:13:36;;;;;;;;;;;;;;;;;;1042166;28;1169;-18
2021/10/30 00:14:07;;;;;;;;;;;;;;;;;;1042408;28;993;-18
2021/10/30 00:14:38;;;;;;;;;;;;;;;;;;1038116;28;1381;-17
2021/10/30 00:15:09;;;;;;;;;;;;;;;;;;1038254;28;1025;-17
2021/10/30 00:15:40;;;;;;;;;;;;;;;;;;1038247;28;1243;-17
2021/10/30 00:16:10;;;;;;;;;;;;;;;;;;1037583;28;1365;-17
2021/10/30 00:16:41;;;;;;;;;;;;;;;;;;1038533;28;1056;-18
2021/10/30 00:17:12;;;;;;;;;;;;;;;;;;1038279;28;978;-17
2021/10/30 00:17:42;;;;;;;;;;;;;;;;;;1042260;28;1022;-17
2021/10/30 00:18:12;;;;;;;;;;;;;;;;;;1039102;28;1074;-18
2021/10/30 00:18:42;;;;;;;;;;;;;;;;;;1038730;28;1345;-18
2021/10/30 00:19:13;;;;;;;;;;;;;;;;;;1038847;28;1412;-17
2021/10/30 00:19:43;;;;;;;;;;;;;;;;;;1039251;28;972;-18
2021/10/30 00:20:14;;;;;;;;;;;;;;;;;;1041811;28;1055;-17
2021/10/30 00:20:45;;;;;;;;;;;;;;;;;;1042626;28;1072;-19
2021/10/30 00:21:16;;;;;;;;;;;;;;;;;;1042032;28;1525;-16
2021/10/30 00:21:48;;;;;;;;;;;;;;;;;;1037989;28;1093;-17
2021/10/30 00:22:18;;;;;;;;;;;;;;;;;;1034184;28;1124;-17
2021/10/30 00:22:49;;;;;;;;;;;;;;;;;;1033568;28;1736;-17
2021/10/30 00:23:19;;;;;;;;;;;;;;;;;;1033975;28;1321;-18
2021/10/30 00:23:50;;;;;;;;;;;;;;;;;;1038106;28;1573;-17
2021/10/30 00:24:20;;;;;;;;;;;;;;;;;;1038002;28;1019;-17
2021/10/30 00:24:50;;;;;;;;;;;;;;;;;;1038306;28;1291;-18
2021/10/30 00:25:21;;;;;;;;;;;;;;;;;;1039125;28;1098;-17
2021/10/30 00:25:51;;;;;;;;;;;;;;;;;;1038550;28;974;-18
2021/10/30 00:26:22;;;;;;;;;;;;;;;;;;1042530;28;1196;-17
2021/10/30 00:26:52;;;;;;;;;;;;;;;;;;1042224;28;1037;-18
2021/10/30 00:27:23;;;;;;;;;;;;;;;;;;1042536;28;1138;-17
2021/10/30 00:27:54;;;;;;;;;;;;;;;;;;1042253;28;1030;-17
2021/10/30 00:28:24;;;;;;;;;;;;;;;;;;1037991;28;1709;-17
2021/10/30 00:28:55;;;;;;;;;;;;;;;;;;1033877;28;1190;-18
2021/10/30 00:29:25;;;;;;;;;;;;;;;;;;1030063;28;1911;-17
2021/10/30 00:29:56;;;;;;;;;;;;;;;;;;1033856;28;1035;-18
2021/10/30 00:30:27;;;;;;;;;;;;;;;;;;1033852;28;1329;-18
2021/10/30 00:30:57;;;;;;;;;;;;;;;;;;1037671;28;1085;-17
2021/10/30 00:31:28;;;;;;;;;;;;;;;;;;1038430;28;1802;-18
2021/10/30 00:31:58;;;;;;;;;;;;;;;;;;1041980;28;1310;-18
2021/10/30 00:32:29;;;;;;;;;;;;;;;;;;1046323;28;1092;-17
2021/10/30 00:32:59;;;;;;;;;;;;;;;;;;1038180;28;1169;-18
2021/10/30 00:33:30;;;;;;;;;;;;;;;;;;1037916;28;1575;-17
2021/10/30 00:34:01;;;;;;;;;;;;;;;;;;1038066;28;1173;-17
2021/10/30 00:34:31;;;;;;;;;;;;;;;;;;1031667;28;1421;-17
2021/10/30 00:35:02;;;;;;;;;;;;;;;;;;1025832;28;1097;-18
2021/10/30 00:35:33;;;;;;;;;;;;;;;;;;1026243;28;1045;-17
2021/10/30 00:36:04;;;;;;;;;;;;;;;;;;1029927;28;1349;-17
2021/10/30 00:36:35;;;;;;;;;;;;;;;;;;1034208;28;1016;-17
2021/10/30 00:37:05;;;;;;;;;;;;;;;;;;1029797;28;1610;-17
2021/10/30 00:37:36;;;;;;;;;;;;;;;;;;1030129;28;1048;-18
2021/10/30 00:38:06;;;;;;;;;;;;;;;;;;1033768;28;1350;-18
2021/10/30 00:38:37;;;;;;;;;;;;;;;;;;1034209;28;1062;-17
2021/10/30 00:39:07;;;;;;;;;;;;;;;;;;1038147;28;1138;-18
2021/10/30 00:39:39;;;;;;;;;;;;;;;;;;1038272;28;830;-17
2021/10/30 00:40:11;;;;;;;;;;;;;;;;;;1034840;28;993;-17
2021/10/30 00:40:42;;;;;;;;;;;;;;;;;;1034902;28;871;-17
2021/10/30 00:41:12;;;;;;;;;;;;;;;;;;1034673;28;946;-19
2021/10/30 00:41:49;;;;;;;;;;;;;;;;;;1034955;28;954;-18
2021/10/30 00:42:20;;;;;;;;;;;;;;;;;;1034841;28;1045;-18
2021/10/30 00:42:50;;;;;;;;;;;;;;;;;;1034745;28;1029;-18
2021/10/30 00:43:21;;;;;;;;;;;;;;;;;;1034862;28;946;-18
2021/10/30 00:43:51;;;;;;;;;;;;;;;;;;1034580;28;1401;-16
2021/10/30 00:44:22;;;;;;;;;;;;;;;;;;1034833;28;929;-18
2021/10/30 00:44:52;;;;;;;;;;;;;;;;;;1035018;28;992;-18
2021/10/30 00:45:22;;;;;;;;;;;;;;;;;;1034652;28;879;-18
2021/10/30 00:45:53;;;;;;;;;;;;;;;;;;1035005;28;1065;-17
2021/10/30 00:46:23;;;;;;;;;;;;;;;;;;1034781;28;926;-18
2021/10/30 00:46:54;;;;;;;;;;;;;;;;;;1030121;28;1138;-18
2021/10/30 00:47:24;;;;;;;;;;;;;;;;;;1030086;28;1116;-18
2021/10/30 00:47:54;;;;;;;;;;;;;;;;;;1030041;28;929;-19
2021/10/30 00:48:25;;;;;;;;;;;;;;;;;;1030218;28;1037;-17
2021/10/30 00:48:55;;;;;;;;;;;;;;;;;;1034757;28;1159;-16
2021/10/30 00:49:28;;;;;;;;;;;;;;;;;;1037273;28;1987;-17
2021/10/30 00:49:59;;;;;;;;;;;;;;;;;;1042321;28;966;-17
2021/10/30 00:50:30;;;;;;;;;;;;;;;;;;1041751;28;1261;-18
2021/10/30 00:51:02;;;;;;;;;;;;;;;;;;1041408;28;1004;-17
2021/10/30 00:51:34;;;;;;;;;;;;;;;;;;1034223;28;997;-17
2021/10/30 00:52:06;;;;;;;;;;;;;;;;;;1034697;28;1228;-18
2021/10/30 00:52:37;;;;;;;;;;;;;;;;;;1034913;28;941;-18
2021/10/30 00:53:08;;;;;;;;;;;;;;;;;;1034829;28;896;-18
2021/10/30 00:53:39;;;;;;;;;;;;;;;;;;1038330;28;1009;-17
2021/10/30 00:54:11;;;;;;;;;;;;;;;;;;1038726;28;834;-18
2021/10/30 00:54:43;;;;;;;;;;;;;;;;;;1037700;28;1348;-17
2021/10/30 00:55:15;;;;;;;;;;;;;;;;;;1037652;28;1156;-18
2021/10/30 00:55:46;;;;;;;;;;;;;;;;;;1033974;28;1267;-18
2021/10/30 00:56:16;;;;;;;;;;;;;;;;;;1037464;28;997;-17
2021/10/30 00:56:48;;;;;;;;;;;;;;;;;;1034138;28;1406;-18
2021/10/30 00:57:19;;;;;;;;;;;;;;;;;;1033479;28;1477;-17
2021/10/30 00:57:50;;;;;;;;;;;;;;;;;;1042104;28;1049;-17
2021/10/30 00:58:21;;;;;;;;;;;;;;;;;;1046483;28;1627;-17
2021/10/30 00:58:52;;;;;;;;;;;;;;;;;;1046440;28;1038;-18
2021/10/30 00:59:23;;;;;;;;;;;;;;;;;;1045799;28;1169;-17
2021/10/30 00:59:54;;;;;;;;;;;;;;;;;;1034411;28;1159;-18
2021/10/30 01:00:25;;;;;;;;;;;;;;;;;;1034147;28;1058;-18
2021/10/30 01:00:56;;;;;;;;;;;;;;;;;;1034168;28;927;-19
2021/10/30 01:01:26;;;;;;;;;;;;;;;;;;1034268;28;955;-18
2021/10/30 01:01:57;;;;;;;;;;;;;;;;;;1038209;28;1047;-18
2021/10/30 01:02:28;;;;;;;;;;;;;;;;;;1034682;28;968;-18
2021/10/30 01:02:58;;;;;;;;;;;;;;;;;;1035014;28;962;-17
2021/10/30 01:03:30;;;;;;;;;;;;;;;;;;1034123;28;895;-19
2021/10/30 01:04:01;;;;;;;;;;;;;;;;;;1034118;28;1737;-18
2021/10/30 01:04:32;;;;;;;;;;;;;;;;;;1038059;28;1088;-18
2021/10/30 01:05:02;;;;;;;;;;;;;;;;;;1038369;28;1199;-18
2021/10/30 01:05:33;;;;;;;;;;;;;;;;;;1042408;28;1213;-18
2021/10/30 01:06:04;;;;;;;;;;;;;;;;;;1042086;28;970;-18
2021/10/30 01:06:34;;;;;;;;;;;;;;;;;;1034664;28;992;-17
2021/10/30 01:07:05;;;;;;;;;;;;;;;;;;1035033;28;971;-18
2021/10/30 01:07:36;;;;;;;;;;;;;;;;;;1034687;28;927;-18
2021/10/30 01:08:06;;;;;;;;;;;;;;;;;;1034813;28;945;-18
2021/10/30 01:08:37;;;;;;;;;;;;;;;;;;1038052;28;1088;-18
2021/10/30 01:09:07;;;;;;;;;;;;;;;;;;1037383;28;1445;-17
2021/10/30 01:09:38;;;;;;;;;;;;;;;;;;1037735;28;1906;-17
2021/10/30 01:10:08;;;;;;;;;;;;;;;;;;1038102;28;1105;-18
2021/10/30 01:10:39;;;;;;;;;;;;;;;;;;1034710;28;925;-18
2021/10/30 01:11:11;;;;;;;;;;;;;;;;;;1038149;28;1013;-17
2021/10/30 01:11:42;;;;;;;;;;;;;;;;;;1038097;28;1028;-17
2021/10/30 01:12:12;;;;;;;;;;;;;;;;;;1034212;28;945;-18
2021/10/30 01:12:43;;;;;;;;;;;;;;;;;;1033981;28;874;-19
2021/10/30 01:13:14;;;;;;;;;;;;;;;;;;1029558;28;1628;-17
2021/10/30 01:13:45;;;;;;;;;;;;;;;;;;1033830;28;1058;-18
2021/10/30 01:14:16;;;;;;;;;;;;;;;;;;1033500;28;1863;-17
2021/10/30 01:14:47;;;;;;;;;;;;;;;;;;1033947;28;1101;-18
2021/10/30 01:15:17;;;;;;;;;;;;;;;;;;1042414;28;1000;-18
2021/10/30 01:15:47;;;;;;;;;;;;;;;;;;1038065;28;1150;-18
2021/10/30 01:16:19;;;;;;;;;;;;;;;;;;1038509;28;878;-17
2021/10/30 01:16:59;;;;;;;;;;;;;;;;;;1034682;28;1488;-17
2021/10/30 01:17:30;;;;;;;;;;;;;;;;;;1029926;28;1057;-18
2021/10/30 01:18:01;;;;;;;;;;;;;;;;;;1030027;28;1061;-18
2021/10/30 01:18:31;;;;;;;;;;;;;;;;;;1029765;28;1673;-17
2021/10/30 01:19:03;;;;;;;;;;;;;;;;;;1030052;28;1209;-17
2021/10/30 01:19:34;;;;;;;;;;;;;;;;;;1034767;28;993;-18
2021/10/30 01:20:05;;;;;;;;;;;;;;;;;;1037929;28;1209;-17
2021/10/30 01:20:37;;;;;;;;;;;;;;;;;;1038099;28;962;-17
2021/10/30 01:21:07;;;;;;;;;;;;;;;;;;1037828;28;1398;-18
2021/10/30 01:21:38;;;;;;;;;;;;;;;;;;1033477;28;1192;-18
2021/10/30 01:22:08;;;;;;;;;;;;;;;;;;1025847;28;1090;-18
2021/10/30 01:22:39;;;;;;;;;;;;;;;;;;1025601;28;1377;-18
2021/10/30 01:23:10;;;;;;;;;;;;;;;;;;1026006;28;1087;-18
2021/10/30 01:23:40;;;;;;;;;;;;;;;;;;1034451;28;1300;-18
2021/10/30 01:24:11;;;;;;;;;;;;;;;;;;1034746;28;972;-18
2021/10/30 01:24:41;;;;;;;;;;;;;;;;;;1034634;28;969;-17
2021/10/30 01:25:12;;;;;;;;;;;;;;;;;;1037037;28;1375;-18
2021/10/30 01:25:42;;;;;;;;;;;;;;;;;;1037918;28;1171;-18
2021/10/30 01:26:12;;;;;;;;;;;;;;;;;;1037855;28;1254;-16
2021/10/30 01:26:43;;;;;;;;;;;;;;;;;;1037431;28;1574;-17
2021/10/30 01:27:20;;;;;;;;;;;;;;;;;;1034608;28;1267;-18
2021/10/30 01:27:51;;;;;;;;;;;;;;;;;;1034365;28;974;-17
2021/10/30 01:28:22;;;;;;;;;;;;;;;;;;1034962;28;952;-18
2021/10/30 01:28:52;;;;;;;;;;;;;;;;;;1038083;28;917;-18
2021/10/30 01:29:23;;;;;;;;;;;;;;;;;;1041842;28;1917;-18
2021/10/30 01:29:56;;;;;;;;;;;;;;;;;;1042284;28;1018;-18
2021/10/30 01:30:27;;;;;;;;;;;;;;;;;;1041546;28;1131;-18
2021/10/30 01:30:58;;;;;;;;;;;;;;;;;;1034156;28;906;-19
2021/10/30 01:31:29;;;;;;;;;;;;;;;;;;1034521;28;1130;-17
2021/10/30 01:31:59;;;;;;;;;;;;;;;;;;1034190;28;1052;-16
2021/10/30 01:32:29;;;;;;;;;;;;;;;;;;1034624;28;858;-17
2021/10/30 01:33:00;;;;;;;;;;;;;;;;;;1034278;28;1413;-16
2021/10/30 01:33:31;;;;;;;;;;;;;;;;;;1034314;28;1243;-17
2021/10/30 01:34:05;;;;;;;;;;;;;;;;;;1034844;28;1097;-17
2021/10/30 01:34:36;;;;;;;;;;;;;;;;;;1034477;28;1348;-18
2021/10/30 01:35:06;;;;;;;;;;;;;;;;;;1040256;28;1273;-18
2021/10/30 01:35:40;;;;;;;;;;;;;;;;;;1042147;28;1020;-17
2021/10/30 01:36:14;;;;;;;;;;;;;;;;;;1042104;28;934;-18
2021/10/30 01:36:45;;;;;;;;;;;;;;;;;;1041137;28;974;-18
2021/10/30 01:37:15;;;;;;;;;;;;;;;;;;1037692;28;1498;-17
2021/10/30 01:37:46;;;;;;;;;;;;;;;;;;1037765;28;1091;-17
2021/10/30 01:38:17;;;;;;;;;;;;;;;;;;1038150;28;1215;-17
2021/10/30 01:38:48;;;;;;;;;;;;;;;;;;1037576;28;1330;-17
2021/10/30 01:39:19;;;;;;;;;;;;;;;;;;1042079;28;1024;-17
2021/10/30 01:39:50;;;;;;;;;;;;;;;;;;1041504;28;1408;-18
2021/10/30 01:40:23;;;;;;;;;;;;;;;;;;1033722;28;1452;-19
2021/10/30 01:40:53;;;;;;;;;;;;;;;;;;1025224;28;1334;-17
2021/10/30 01:41:24;;;;;;;;;;;;;;;;;;1021473;28;1478;-17
2021/10/30 01:41:55;;;;;;;;;;;;;;;;;;1023007;28;919;-17
2021/10/30 01:42:25;;;;;;;;;;;;;;;;;;1038101;28;961;-17
2021/10/30 01:42:58;;;;;;;;;;;;;;;;;;1042135;28;1281;-17
2021/10/30 01:43:28;;;;;;;;;;;;;;;;;;1041757;28;1094;-17
2021/10/30 01:43:59;;;;;;;;;;;;;;;;;;1037665;28;1065;-18
2021/10/30 01:44:29;;;;;;;;;;;;;;;;;;1037867;28;1060;-17
2021/10/30 01:45:00;;;;;;;;;;;;;;;;;;1037824;28;1451;-18
2021/10/30 01:45:30;;;;;;;;;;;;;;;;;;1037967;28;989;-18
2021/10/30 01:46:03;;;;;;;;;;;;;;;;;;1038141;28;1113;-23
2021/10/30 01:46:34;;;;;;;;;;;;;;;;;;1041535;28;1553;-18
2021/10/30 01:47:06;;;;;;;;;;;;;;;;;;1042178;28;1177;-17
2021/10/30 01:47:36;;;;;;;;;;;;;;;;;;1037849;28;1128;-17
2021/10/30 01:48:06;;;;;;;;;;;;;;;;;;1038060;28;1090;-17
2021/10/30 01:48:38;;;;;;;;;;;;;;;;;;1029787;28;1029;-17
2021/10/30 01:49:09;;;;;;;;;;;;;;;;;;1029279;28;1102;-17
2021/10/30 01:49:39;;;;;;;;;;;;;;;;;;1025914;28;1918;-18
2021/10/30 01:50:14;;;;;;;;;;;;;;;;;;1026120;28;1002;-17
2021/10/30 01:50:44;;;;;;;;;;;;;;;;;;1037959;28;1033;-18
2021/10/30 01:51:15;;;;;;;;;;;;;;;;;;1038416;28;1171;-18
2021/10/30 01:51:45;;;;;;;;;;;;;;;;;;1038411;28;1568;-17
2021/10/30 01:52:16;;;;;;;;;;;;;;;;;;1041790;28;1138;-17
2021/10/30 01:52:46;;;;;;;;;;;;;;;;;;1041924;28;1172;-18
2021/10/30 01:53:17;;;;;;;;;;;;;;;;;;1042013;28;1060;-18
2021/10/30 01:53:47;;;;;;;;;;;;;;;;;;1042246;28;1008;-18
2021/10/30 01:54:18;;;;;;;;;;;;;;;;;;1038944;28;935;-18
2021/10/30 01:54:48;;;;;;;;;;;;;;;;;;1041906;28;894;-17
2021/10/30 01:55:21;;;;;;;;;;;;;;;;;;1042343;28;1215;-18
2021/10/30 01:55:51;;;;;;;;;;;;;;;;;;1041300;28;1388;-16
2021/10/30 01:56:22;;;;;;;;;;;;;;;;;;1037728;28;1675;-18
2021/10/30 01:56:53;;;;;;;;;;;;;;;;;;1037872;28;1278;-16
2021/10/30 01:57:23;;;;;;;;;;;;;;;;;;1037498;28;1287;-17
2021/10/30 01:57:53;;;;;;;;;;;;;;;;;;1034051;28;1079;-19
2021/10/30 01:58:24;;;;;;;;;;;;;;;;;;1042196;28;1115;-17
2021/10/30 01:58:54;;;;;;;;;;;;;;;;;;1041940;28;967;-16
2021/10/30 01:59:25;;;;;;;;;;;;;;;;;;1038731;28;918;-18
2021/10/30 01:59:56;;;;;;;;;;;;;;;;;;1041701;28;1616;-18
2021/10/30 02:00:27;;;;;;;;;;;;;;;;;;1042104;28;1017;-18
2021/10/30 02:01:00;;;;;;;;;;;;;;;;;;1042266;28;1115;-17
2021/10/30 02:01:31;;;;;;;;;;;;;;;;;;1041457;28;1276;-17
2021/10/30 02:02:03;;;;;;;;;;;;;;;;;;1042006;28;1103;-18
2021/10/30 02:02:35;;;;;;;;;;;;;;;;;;1033466;28;1465;-17
2021/10/30 02:03:05;;;;;;;;;;;;;;;;;;1033671;28;1198;-18
2021/10/30 02:03:36;;;;;;;;;;;;;;;;;;1034029;28;1012;-18
2021/10/30 02:04:06;;;;;;;;;;;;;;;;;;1029850;28;990;-17
2021/10/30 02:04:36;;;;;;;;;;;;;;;;;;1038059;28;1458;-17
2021/10/30 02:05:08;;;;;;;;;;;;;;;;;;1033803;28;1057;-18
2021/10/30 02:05:39;;;;;;;;;;;;;;;;;;1034205;28;972;-17
2021/10/30 02:06:09;;;;;;;;;;;;;;;;;;1037993;28;1142;-17
2021/10/30 02:06:39;;;;;;;;;;;;;;;;;;1038065;28;1082;-17
2021/10/30 02:07:10;;;;;;;;;;;;;;;;;;1041551;28;1664;-17
2021/10/30 02:07:41;;;;;;;;;;;;;;;;;;1037687;28;1495;-18
2021/10/30 02:08:12;;;;;;;;;;;;;;;;;;1037885;28;1213;-18
2021/10/30 02:08:42;;;;;;;;;;;;;;;;;;1029588;28;1389;-18
2021/10/30 02:09:13;;;;;;;;;;;;;;;;;;1029807;28;1050;-18
2021/10/30 02:09:43;;;;;;;;;;;;;;;;;;1033908;28;1910;-18
2021/10/30 02:10:14;;;;;;;;;;;;;;;;;;1037932;28;993;-18
2021/10/30 02:10:45;;;;;;;;;;;;;;;;;;1042118;28;1173;-17
2021/10/30 02:11:15;;;;;;;;;;;;;;;;;;1037964;28;1084;-17
2021/10/30 02:11:46;;;;;;;;;;;;;;;;;;1037254;28;1401;-18
2021/10/30 02:12:16;;;;;;;;;;;;;;;;;;1037866;28;1106;-17
2021/10/30 02:12:47;;;;;;;;;;;;;;;;;;1037711;28;1038;-17
2021/10/30 02:13:19;;;;;;;;;;;;;;;;;;1038078;28;1288;-18
2021/10/30 02:13:51;;;;;;;;;;;;;;;;;;1042596;28;929;-17
2021/10/30 02:14:22;;;;;;;;;;;;;;;;;;1041663;28;1472;-18
2021/10/30 02:14:53;;;;;;;;;;;;;;;;;;1042081;28;1078;-19
2021/10/30 02:15:24;;;;;;;;;;;;;;;;;;1037761;28;984;-17
2021/10/30 02:15:54;;;;;;;;;;;;;;;;;;1033294;28;1419;-16
2021/10/30 02:16:25;;;;;;;;;;;;;;;;;;1034002;28;986;-17
2021/10/30 02:16:55;;;;;;;;;;;;;;;;;;1029762;28;1207;-17
2021/10/30 02:17:26;;;;;;;;;;;;;;;;;;1037989;28;1231;-17
2021/10/30 02:17:57;;;;;;;;;;;;;;;;;;1037828;28;997;-19
2021/10/30 02:18:27;;;;;;;;;;;;;;;;;;1037776;28;1132;-17
2021/10/30 02:18:57;;;;;;;;;;;;;;;;;;1038003;28;968;-18
2021/10/30 02:19:28;;;;;;;;;;;;;;;;;;1037561;28;1354;-16
2021/10/30 02:19:59;;;;;;;;;;;;;;;;;;1037579;28;1183;-18
2021/10/30 02:20:30;;;;;;;;;;;;;;;;;;1038112;28;1066;-18
2021/10/30 02:21:00;;;;;;;;;;;;;;;;;;1037310;28;1532;-17
2021/10/30 02:21:30;;;;;;;;;;;;;;;;;;1038174;28;1028;-18
2021/10/30 02:22:00;;;;;;;;;;;;;;;;;;1038657;28;1114;-18
2021/10/30 02:22:31;;;;;;;;;;;;;;;;;;1038260;28;1484;-18
2021/10/30 02:23:01;;;;;;;;;;;;;;;;;;1042139;28;1178;-17
2021/10/30 02:23:32;;;;;;;;;;;;;;;;;;1042099;28;994;-18
2021/10/30 02:24:02;;;;;;;;;;;;;;;;;;1041914;28;929;-18
2021/10/30 02:24:33;;;;;;;;;;;;;;;;;;1042331;28;1079;-18
2021/10/30 02:25:08;;;;;;;;;;;;;;;;;;1041380;28;1402;-17
2021/10/30 02:25:38;;;;;;;;;;;;;;;;;;1042249;28;994;-17
2021/10/30 02:26:09;;;;;;;;;;;;;;;;;;1041784;28;1083;-18
2021/10/30 02:26:39;;;;;;;;;;;;;;;;;;1042046;28;1023;-17
2021/10/30 02:27:10;;;;;;;;;;;;;;;;;;1042138;28;843;-17
2021/10/30 02:27:40;;;;;;;;;;;;;;;;;;1041020;28;1496;-17
2021/10/30 02:28:11;;;;;;;;;;;;;;;;;;1038339;28;1202;-18
2021/10/30 02:28:41;;;;;;;;;;;;;;;;;;1038505;28;1327;-16
2021/10/30 02:29:12;;;;;;;;;;;;;;;;;;1038211;28;1160;-17
2021/10/30 02:29:43;;;;;;;;;;;;;;;;;;1038627;28;1910;-17
2021/10/30 02:30:13;;;;;;;;;;;;;;;;;;1045736;28;1669;-17
2021/10/30 02:30:44;;;;;;;;;;;;;;;;;;1045956;28;1113;-17
2021/10/30 02:31:14;;;;;;;;;;;;;;;;;;1046246;28;1103;-17
2021/10/30 02:31:44;;;;;;;;;;;;;;;;;;1046062;28;1487;-18
2021/10/30 02:32:15;;;;;;;;;;;;;;;;;;1037952;28;1057;-17
2021/10/30 02:32:45;;;;;;;;;;;;;;;;;;1038377;28;1432;-18
2021/10/30 02:33:16;;;;;;;;;;;;;;;;;;1038157;28;1209;-17
2021/10/30 02:33:47;;;;;;;;;;;;;;;;;;1038813;28;1001;-17
2021/10/30 02:34:17;;;;;;;;;;;;;;;;;;1041614;28;1278;-16
2021/10/30 02:34:48;;;;;;;;;;;;;;;;;;1041854;28;935;-18
2021/10/30 02:35:19;;;;;;;;;;;;;;;;;;1038173;28;1274;-18
2021/10/30 02:35:49;;;;;;;;;;;;;;;;;;1037820;28;1143;-17
2021/10/30 02:36:20;;;;;;;;;;;;;;;;;;1037923;28;1068;-17
2021/10/30 02:36:50;;;;;;;;;;;;;;;;;;1034558;28;904;-17
2021/10/30 02:37:20;;;;;;;;;;;;;;;;;;1034437;28;918;-18
2021/10/30 02:37:51;;;;;;;;;;;;;;;;;;1029781;28;1464;-17
2021/10/30 02:38:22;;;;;;;;;;;;;;;;;;1029463;28;1007;-17
2021/10/30 02:38:52;;;;;;;;;;;;;;;;;;1029839;28;954;-17
2021/10/30 02:39:24;;;;;;;;;;;;;;;;;;1029516;28;1195;-17
2021/10/30 02:39:54;;;;;;;;;;;;;;;;;;1037808;28;1307;-17
2021/10/30 02:40:24;;;;;;;;;;;;;;;;;;1037935;28;1008;-17
2021/10/30 02:40:55;;;;;;;;;;;;;;;;;;1037636;28;1375;-18
2021/10/30 02:41:25;;;;;;;;;;;;;;;;;;1034374;28;1194;-17
2021/10/30 02:41:56;;;;;;;;;;;;;;;;;;1034458;28;1263;-17
2021/10/30 02:42:28;;;;;;;;;;;;;;;;;;1037779;28;1270;-17
2021/10/30 02:42:58;;;;;;;;;;;;;;;;;;1037682;28;1313;-16
2021/10/30 02:43:28;;;;;;;;;;;;;;;;;;1037290;28;1322;-17
2021/10/30 02:43:59;;;;;;;;;;;;;;;;;;1037791;28;1178;-18
2021/10/30 02:44:31;;;;;;;;;;;;;;;;;;1037793;28;1002;-17
2021/10/30 02:45:03;;;;;;;;;;;;;;;;;;1037815;28;1100;-17
2021/10/30 02:45:33;;;;;;;;;;;;;;;;;;1037939;28;1217;-17
2021/10/30 02:46:04;;;;;;;;;;;;;;;;;;1037593;28;787;-17
2021/10/30 02:46:35;;;;;;;;;;;;;;;;;;1034678;28;953;-18
2021/10/30 02:47:05;;;;;;;;;;;;;;;;;;1037731;28;1061;-17
2021/10/30 02:47:36;;;;;;;;;;;;;;;;;;1037740;28;1397;-17
2021/10/30 02:48:06;;;;;;;;;;;;;;;;;;1037789;28;982;-18
2021/10/30 02:48:37;;;;;;;;;;;;;;;;;;1037959;28;1218;-16
2021/10/30 02:49:08;;;;;;;;;;;;;;;;;;1034508;28;1029;-18
2021/10/30 02:49:38;;;;;;;;;;;;;;;;;;1037893;28;2051;-19
2021/10/30 02:50:09;;;;;;;;;;;;;;;;;;1037754;28;1098;-18
2021/10/30 02:50:43;;;;;;;;;;;;;;;;;;1041967;28;950;-18
2021/10/30 02:51:13;;;;;;;;;;;;;;;;;;1041417;28;1536;-17
2021/10/30 02:51:44;;;;;;;;;;;;;;;;;;1037916;28;1066;-18
2021/10/30 02:52:15;;;;;;;;;;;;;;;;;;1037649;28;1109;-17
2021/10/30 02:52:46;;;;;;;;;;;;;;;;;;1034327;28;1003;-17
2021/10/30 02:53:17;;;;;;;;;;;;;;;;;;1034518;28;1075;-17
2021/10/30 02:53:47;;;;;;;;;;;;;;;;;;1034335;28;1579;-17
2021/10/30 02:54:18;;;;;;;;;;;;;;;;;;1037349;28;1465;-19
2021/10/30 02:54:48;;;;;;;;;;;;;;;;;;1038015;28;969;-17
2021/10/30 02:55:19;;;;;;;;;;;;;;;;;;1033011;28;1258;-18
2021/10/30 02:55:49;;;;;;;;;;;;;;;;;;1029291;28;1135;-17
2021/10/30 02:56:20;;;;;;;;;;;;;;;;;;1029713;28;1284;-17
2021/10/30 02:56:50;;;;;;;;;;;;;;;;;;1033499;28;1010;-17
2021/10/30 02:57:21;;;;;;;;;;;;;;;;;;1033814;28;1324;-19
2021/10/30 02:57:54;;;;;;;;;;;;;;;;;;1029477;28;1022;-18
2021/10/30 02:58:25;;;;;;;;;;;;;;;;;;1029127;28;1113;-18
2021/10/30 02:58:56;;;;;;;;;;;;;;;;;;1026020;28;1172;-17
2021/10/30 02:59:26;;;;;;;;;;;;;;;;;;1034137;28;1005;-18
2021/10/30 02:59:57;;;;;;;;;;;;;;;;;;1042056;28;877;-18
2021/10/30 03:00:27;;;;;;;;;;;;;;;;;;1033697;28;996;-17
2021/10/30 03:00:58;;;;;;;;;;;;;;;;;;1033862;28;894;-17
2021/10/30 03:01:28;;;;;;;;;;;;;;;;;;1033926;28;1083;-18
2021/10/30 03:01:59;;;;;;;;;;;;;;;;;;1037623;28;1587;-17
2021/10/30 03:02:30;;;;;;;;;;;;;;;;;;1041679;28;1172;-18
2021/10/30 03:03:03;;;;;;;;;;;;;;;;;;1042086;28;1027;-18
2021/10/30 03:03:33;;;;;;;;;;;;;;;;;;1036965;28;1235;-18
2021/10/30 03:04:04;;;;;;;;;;;;;;;;;;1033802;28;1004;-17
2021/10/30 03:04:34;;;;;;;;;;;;;;;;;;1029857;28;1008;-18
2021/10/30 03:05:05;;;;;;;;;;;;;;;;;;1034338;28;1044;-18
2021/10/30 03:05:38;;;;;;;;;;;;;;;;;;1034552;28;1058;-17
2021/10/30 03:06:09;;;;;;;;;;;;;;;;;;1034393;28;1205;-17
2021/10/30 03:06:39;;;;;;;;;;;;;;;;;;1033999;28;1086;-17
2021/10/30 03:07:10;;;;;;;;;;;;;;;;;;1030473;28;1428;-17
2021/10/30 03:07:40;;;;;;;;;;;;;;;;;;1034415;28;1300;-18
2021/10/30 03:08:11;;;;;;;;;;;;;;;;;;1034503;28;1170;-19
2021/10/30 03:08:41;;;;;;;;;;;;;;;;;;1035103;28;1193;-17
2021/10/30 03:09:11;;;;;;;;;;;;;;;;;;1034817;28;1299;-18
2021/10/30 03:09:47;;;;;;;;;;;;;;;;;;1038566;28;1910;-18
2021/10/30 03:10:18;;;;;;;;;;;;;;;;;;1038590;28;955;-18
2021/10/30 03:10:48;;;;;;;;;;;;;;;;;;1038531;28;1123;-17
2021/10/30 03:11:19;;;;;;;;;;;;;;;;;;1038049;28;1020;-18
2021/10/30 03:11:49;;;;;;;;;;;;;;;;;;1035306;28;985;-18
2021/10/30 03:12:20;;;;;;;;;;;;;;;;;;1035165;28;958;-17
2021/10/30 03:12:51;;;;;;;;;;;;;;;;;;1038509;28;1189;-18
2021/10/30 03:13:21;;;;;;;;;;;;;;;;;;1038723;28;1000;-17
2021/10/30 03:13:52;;;;;;;;;;;;;;;;;;1034172;28;1641;-17
2021/10/30 03:14:22;;;;;;;;;;;;;;;;;;1034236;28;1089;-18
2021/10/30 03:14:52;;;;;;;;;;;;;;;;;;1034435;28;995;-18
2021/10/30 03:15:23;;;;;;;;;;;;;;;;;;1033944;28;1285;-17
2021/10/30 03:15:54;;;;;;;;;;;;;;;;;;1034656;28;1432;-18
2021/10/30 03:16:25;;;;;;;;;;;;;;;;;;1034364;28;918;-17
2021/10/30 03:16:55;;;;;;;;;;;;;;;;;;1038735;28;1294;-18
2021/10/30 03:17:26;;;;;;;;;;;;;;;;;;1038575;28;1172;-18
2021/10/30 03:17:56;;;;;;;;;;;;;;;;;;1042161;28;1622;-17
2021/10/30 03:18:27;;;;;;;;;;;;;;;;;;1038424;28;1092;-17
2021/10/30 03:18:58;;;;;;;;;;;;;;;;;;1034190;28;1305;-18
2021/10/30 03:19:30;;;;;;;;;;;;;;;;;;1033419;28;1139;-17
2021/10/30 03:20:01;;;;;;;;;;;;;;;;;;1030398;28;1344;-18
2021/10/30 03:20:31;;;;;;;;;;;;;;;;;;1030275;28;1460;-17
2021/10/30 03:21:03;;;;;;;;;;;;;;;;;;1034451;28;1036;-18
2021/10/30 03:21:33;;;;;;;;;;;;;;;;;;1034488;28;983;-18
2021/10/30 03:22:04;;;;;;;;;;;;;;;;;;1034328;28;1110;-18
2021/10/30 03:22:35;;;;;;;;;;;;;;;;;;1034715;28;1580;-18
2021/10/30 03:23:05;;;;;;;;;;;;;;;;;;1034033;28;1503;-17
2021/10/30 03:23:36;;;;;;;;;;;;;;;;;;1034447;28;1230;-17
2021/10/30 03:24:06;;;;;;;;;;;;;;;;;;1034615;28;1051;-18
2021/10/30 03:24:37;;;;;;;;;;;;;;;;;;1033925;28;1466;-17
2021/10/30 03:25:08;;;;;;;;;;;;;;;;;;1039063;28;924;-18
2021/10/30 03:25:39;;;;;;;;;;;;;;;;;;1038736;28;1476;-17
2021/10/30 03:26:10;;;;;;;;;;;;;;;;;;1037975;28;1255;-17
2021/10/30 03:26:40;;;;;;;;;;;;;;;;;;1038625;28;1295;-17
2021/10/30 03:27:10;;;;;;;;;;;;;;;;;;1037999;28;1511;-17
2021/10/30 03:27:41;;;;;;;;;;;;;;;;;;1038552;28;1104;-18
2021/10/30 03:28:11;;;;;;;;;;;;;;;;;;1042833;28;1039;-17
2021/10/30 03:28:42;;;;;;;;;;;;;;;;;;1038285;28;1080;-17
2021/10/30 03:29:12;;;;;;;;;;;;;;;;;;1038674;28;949;-18
2021/10/30 03:29:43;;;;;;;;;;;;;;;;;;1037933;28;1977;-18
2021/10/30 03:30:13;;;;;;;;;;;;;;;;;;1035114;28;1113;-18
2021/10/30 03:30:44;;;;;;;;;;;;;;;;;;1035332;28;977;-17
2021/10/30 03:31:14;;;;;;;;;;;;;;;;;;1034958;28;1074;-17
2021/10/30 03:31:45;;;;;;;;;;;;;;;;;;1038856;28;999;-17
2021/10/30 03:32:16;;;;;;;;;;;;;;;;;;1034342;28;1424;-18
2021/10/30 03:32:46;;;;;;;;;;;;;;;;;;1034011;28;1072;-17
2021/10/30 03:33:16;;;;;;;;;;;;;;;;;;1038614;28;1075;-19
2021/10/30 03:33:48;;;;;;;;;;;;;;;;;;1038420;28;1197;-17
2021/10/30 03:34:18;;;;;;;;;;;;;;;;;;1042543;28;1024;-18
2021/10/30 03:34:49;;;;;;;;;;;;;;;;;;1042411;28;1188;-16